createdAt,value
2023-05-18T00:02:06.955Z,3.03
2023-05-18T00:04:37.359Z,3.08
2023-05-18T00:07:04.985Z,2.40
2023-05-18T00:09:33.342Z,2.95
2023-05-18T00:12:00.691Z,2.95
2023-05-18T00:14:27.777Z,2.85
2023-05-18T00:16:54.695Z,2.35
2023-05-18T00:19:22.320Z,2.97
2023-05-18T00:21:48.883Z,2.75
2023-05-18T00:24:15.842Z,2.90
2023-05-18T00:26:43.601Z,2.63
2023-05-18T00:29:10.346Z,2.70
2023-05-18T00:31:38.546Z,2.25
2023-05-18T00:34:11.709Z,2.58
2023-05-18T00:36:38.488Z,2.50
2023-05-18T00:39:05.856Z,2.83
2023-05-18T00:41:32.599Z,2.65
2023-05-18T00:43:59.601Z,2.60
2023-05-18T00:46:27.197Z,2.65
2023-05-18T00:48:55.127Z,2.63
2023-05-18T00:51:23.443Z,2.35
2023-05-18T00:53:51.628Z,2.65
2023-05-18T00:56:18.462Z,2.47
2023-05-18T00:58:44.933Z,2.35
2023-05-18T01:01:11.544Z,2.15
2023-05-18T01:03:39.147Z,2.67
2023-05-18T01:06:06.680Z,2.38
2023-05-18T01:08:34.299Z,2.45
2023-05-18T01:11:25.465Z,2.40
2023-05-18T01:14:09.539Z,2.50
2023-05-18T01:16:41.709Z,2.55
2023-05-18T01:19:49.775Z,2.10
2023-05-18T01:22:46.927Z,2.28
2023-05-18T01:25:35.016Z,2.50
2023-05-18T01:28:06.598Z,2.47
2023-05-18T01:30:40.919Z,2.15
2023-05-18T01:33:11.498Z,2.10
2023-05-18T01:35:38.434Z,2.10
2023-05-18T01:38:04.986Z,2.35
2023-05-18T01:40:35.655Z,2.30
2023-05-18T01:43:07.889Z,2.47
2023-05-18T01:45:35.533Z,2.33
2023-05-18T01:48:02.315Z,2.35
2023-05-18T01:50:37.887Z,2.13
2023-05-18T01:53:09.632Z,2.15
2023-05-18T01:55:37.688Z,2.10
2023-05-18T01:58:06.019Z,2.00
2023-05-18T02:00:33.103Z,2.47
2023-05-18T02:02:59.758Z,2.47
2023-05-18T02:05:26.417Z,2.65
2023-05-18T02:07:52.845Z,2.30
2023-05-18T02:10:19.454Z,2.53
2023-05-18T02:12:49.074Z,2.95
2023-05-18T02:15:15.733Z,2.35
2023-05-18T02:17:42.167Z,2.35
2023-05-18T02:20:09.063Z,2.50
2023-05-18T02:22:36.120Z,1.73
2023-05-18T02:25:04.915Z,2.45
2023-05-18T02:27:31.846Z,2.20
2023-05-18T02:29:59.195Z,2.10
2023-05-18T02:32:25.719Z,2.30
2023-05-18T02:34:53.046Z,2.80
2023-05-18T02:37:19.541Z,2.63
2023-05-18T02:39:46.127Z,2.20
2023-05-18T02:42:13.636Z,2.38
2023-05-18T02:44:40.039Z,2.50
2023-05-18T02:47:06.501Z,2.08
2023-05-18T02:49:33.484Z,2.40
2023-05-18T02:51:59.912Z,2.92
2023-05-18T02:54:26.376Z,2.55
2023-05-18T02:56:56.869Z,2.67
2023-05-18T02:59:23.394Z,2.70
2023-05-18T03:01:49.948Z,2.33
2023-05-18T03:04:16.985Z,2.83
2023-05-18T03:06:46.239Z,2.38
2023-05-18T03:09:12.824Z,2.28
2023-05-18T03:11:39.241Z,2.83
2023-05-18T03:14:05.941Z,2.35
2023-05-18T03:16:32.531Z,2.40
2023-05-18T03:18:59.447Z,2.85
2023-05-18T03:21:25.977Z,2.55
2023-05-18T03:23:52.450Z,2.55
2023-05-18T03:26:18.961Z,2.85
2023-05-18T03:28:45.699Z,2.78
2023-05-18T03:31:12.193Z,2.30
2023-05-18T03:33:38.692Z,1.85
2023-05-18T03:36:05.451Z,2.13
2023-05-18T03:38:31.924Z,2.67
2023-05-18T03:40:58.410Z,2.45
2023-05-18T03:43:29.544Z,3.30
2023-05-18T03:45:56.254Z,2.22
2023-05-18T03:48:23.379Z,2.35
2023-05-18T03:50:49.987Z,2.30
2023-05-18T03:53:21.349Z,2.00
2023-05-18T03:55:51.653Z,2.40
2023-05-18T03:58:20.141Z,2.88
2023-05-18T04:00:47.378Z,2.58
2023-05-18T04:03:14.744Z,2.40
2023-05-18T04:05:43.503Z,2.30
2023-05-18T04:08:14.216Z,2.25
2023-05-18T04:10:44.299Z,2.50
2023-05-18T04:13:11.398Z,2.75
2023-05-18T04:15:38.212Z,2.92
2023-05-18T04:18:04.745Z,2.97
2023-05-18T04:20:31.264Z,2.65
2023-05-18T04:22:57.728Z,3.17
2023-05-18T04:25:28.171Z,2.33
2023-05-18T04:27:55.916Z,2.50
2023-05-18T04:30:23.310Z,2.33
2023-05-18T04:32:50.298Z,2.40
2023-05-18T04:35:16.841Z,2.40
2023-05-18T04:37:43.355Z,2.65
2023-05-18T04:40:13.945Z,2.60
2023-05-18T04:42:45.257Z,2.03
2023-05-18T04:45:15.705Z,2.53
2023-05-18T04:47:42.961Z,2.72
2023-05-18T04:50:09.664Z,2.47
2023-05-18T04:52:36.906Z,2.80
2023-05-18T04:55:03.820Z,2.42
2023-05-18T04:57:30.966Z,2.65
2023-05-18T04:59:58.226Z,2.47
2023-05-18T05:02:24.753Z,2.33
2023-05-18T05:04:51.485Z,2.33
2023-05-18T05:07:17.901Z,2.40
2023-05-18T05:09:44.300Z,2.35
2023-05-18T05:12:10.858Z,3.10
2023-05-18T05:14:37.287Z,2.75
2023-05-18T05:17:03.788Z,2.60
2023-05-18T05:19:30.516Z,2.83
2023-05-18T05:21:57.031Z,2.58
2023-05-18T05:24:23.484Z,2.55
2023-05-18T05:26:49.931Z,2.13
2023-05-18T05:29:16.544Z,2.03
2023-05-18T05:31:43.081Z,2.67
2023-05-18T05:34:11.878Z,2.85
2023-05-18T05:36:39.248Z,2.83
2023-05-18T05:39:05.677Z,2.70
2023-05-18T05:41:32.574Z,2.13
2023-05-18T05:43:59.118Z,2.53
2023-05-18T05:46:25.814Z,2.50
2023-05-18T05:48:52.277Z,2.83
2023-05-18T05:51:18.655Z,2.83
2023-05-18T05:53:47.453Z,2.47
2023-05-18T05:56:13.975Z,2.92
2023-05-18T05:58:42.057Z,2.15
2023-05-18T06:01:08.566Z,2.33
2023-05-18T06:03:36.152Z,3.03
2023-05-18T06:06:02.755Z,2.40
2023-05-18T06:08:29.143Z,2.65
2023-05-18T06:10:55.748Z,2.53
2023-05-18T06:13:22.303Z,2.75
2023-05-18T06:15:48.744Z,3.03
2023-05-18T06:18:15.228Z,2.22
2023-05-18T06:20:41.705Z,2.70
2023-05-18T06:23:08.174Z,2.33
2023-05-18T06:25:35.387Z,2.58
2023-05-18T06:28:01.948Z,2.58
2023-05-18T06:30:28.395Z,2.92
2023-05-18T06:32:55.061Z,2.75
2023-05-18T06:35:21.829Z,2.95
2023-05-18T06:37:48.292Z,2.38
2023-05-18T06:40:14.789Z,2.67
2023-05-18T06:42:41.325Z,3.25
2023-05-18T06:45:08.116Z,2.55
2023-05-18T06:47:34.650Z,2.45
2023-05-18T06:50:01.439Z,2.55
2023-05-18T06:52:27.899Z,2.47
2023-05-18T06:54:54.405Z,2.65
2023-05-18T06:57:20.928Z,2.25
2023-05-18T06:59:53.389Z,2.50
2023-05-18T07:02:21.262Z,2.70
2023-05-18T07:04:48.294Z,2.35
2023-05-18T07:07:16.686Z,2.72
2023-05-18T07:09:45.418Z,2.90
2023-05-18T07:12:12.523Z,2.75
2023-05-18T07:14:39.052Z,2.42
2023-05-18T07:17:07.400Z,2.90
2023-05-18T07:19:35.148Z,2.80
2023-05-18T07:22:01.655Z,3.38
2023-05-18T07:24:28.125Z,2.65
2023-05-18T07:26:54.557Z,3.40
2023-05-18T07:29:21.072Z,2.33
2023-05-18T07:31:47.671Z,2.67
2023-05-18T07:34:14.110Z,2.47
2023-05-18T07:36:40.558Z,3.03
2023-05-18T07:39:07.181Z,2.90
2023-05-18T07:41:33.858Z,3.00
2023-05-18T07:44:00.540Z,2.42
2023-05-18T07:46:27.005Z,2.53
2023-05-18T07:48:53.515Z,2.67
2023-05-18T07:51:19.969Z,2.95
2023-05-18T07:53:46.512Z,2.42
2023-05-18T07:56:13.604Z,2.72
2023-05-18T07:58:40.456Z,2.70
2023-05-18T08:01:06.861Z,2.63
2023-05-18T08:03:33.423Z,2.30
2023-05-18T08:06:00.682Z,3.45
2023-05-18T08:08:27.167Z,2.65
2023-05-18T08:10:53.760Z,2.88
2023-05-18T08:13:20.220Z,2.45
2023-05-18T08:15:53.236Z,3.33
2023-05-18T08:18:22.862Z,2.92
2023-05-18T08:20:49.498Z,2.83
2023-05-18T08:23:16.070Z,2.67
2023-05-18T08:25:42.538Z,2.90
2023-05-18T08:28:08.912Z,2.70
2023-05-18T08:30:35.639Z,2.33
2023-05-18T08:33:02.964Z,3.13
2023-05-18T08:35:29.663Z,2.85
2023-05-18T08:37:56.306Z,2.50
2023-05-18T08:40:24.051Z,2.40
2023-05-18T08:43:02.722Z,2.90
2023-05-18T08:45:44.291Z,2.55
2023-05-18T08:48:11.722Z,2.70
2023-05-18T08:50:38.507Z,2.70
2023-05-18T08:53:05.915Z,2.65
2023-05-18T08:55:36.913Z,3.30
2023-05-18T08:58:04.756Z,2.97
2023-05-18T09:00:32.770Z,2.42
2023-05-18T09:02:59.834Z,2.55
2023-05-18T09:05:26.552Z,2.83
2023-05-18T09:07:54.850Z,2.22
2023-05-18T09:10:21.652Z,2.58
2023-05-18T09:12:49.173Z,2.92
2023-05-18T09:15:17.556Z,2.65
2023-05-18T09:17:44.102Z,3.10
2023-05-18T09:20:10.761Z,2.50
2023-05-18T09:22:40.176Z,2.53
2023-05-18T09:25:10.592Z,2.30
2023-05-18T09:27:37.682Z,2.42
2023-05-18T09:30:05.128Z,2.65
2023-05-18T09:32:34.934Z,2.67
2023-05-18T09:35:08.559Z,2.78
2023-05-18T09:37:35.279Z,2.58
2023-05-18T09:40:05.119Z,2.35
2023-05-18T09:42:42.575Z,2.78
2023-05-18T09:45:14.756Z,2.85
2023-05-18T09:47:41.221Z,2.72
2023-05-18T09:50:08.207Z,3.22
2023-05-18T09:52:46.106Z,3.10
2023-05-18T09:55:13.150Z,2.45
2023-05-18T09:57:43.924Z,2.88
2023-05-18T10:00:11.631Z,2.55
2023-05-18T10:02:40.024Z,2.70
2023-05-18T10:05:07.672Z,2.53
2023-05-18T10:07:36.102Z,2.28
2023-05-18T10:10:03.583Z,2.65
2023-05-18T10:12:30.108Z,2.08
2023-05-18T10:14:56.576Z,2.72
2023-05-18T10:17:25.669Z,3.10
2023-05-18T10:19:54.081Z,2.67
2023-05-18T10:22:23.115Z,2.78
2023-05-18T10:24:51.603Z,2.75
2023-05-18T10:27:22.874Z,2.47
2023-05-18T10:29:52.145Z,2.60
2023-05-18T10:32:20.788Z,2.20
2023-05-18T10:34:47.637Z,2.50
2023-05-18T10:37:16.180Z,2.72
2023-05-18T10:39:45.533Z,2.83
2023-05-18T10:42:13.863Z,2.88
2023-05-18T10:44:40.679Z,2.35
2023-05-18T10:47:08.579Z,2.72
2023-05-18T10:49:36.304Z,3.13
2023-05-18T10:52:03.261Z,2.65
2023-05-18T10:54:32.158Z,2.60
2023-05-18T10:56:58.786Z,2.88
2023-05-18T10:59:25.251Z,2.40
2023-05-18T11:01:53.473Z,2.90
2023-05-18T11:04:24.325Z,2.70
2023-05-18T11:06:55.345Z,2.75
2023-05-18T11:09:23.956Z,2.55
2023-05-18T11:11:52.721Z,3.28
2023-05-18T11:14:26.413Z,2.38
2023-05-18T11:16:53.363Z,2.33
2023-05-18T11:19:24.941Z,2.95
2023-05-18T11:21:52.625Z,2.58
2023-05-18T11:24:19.908Z,2.88
2023-05-18T11:27:07.557Z,2.15
2023-05-18T11:29:57.776Z,2.15
2023-05-18T11:32:36.335Z,2.80
2023-05-18T11:35:05.729Z,2.97
2023-05-18T11:37:47.798Z,2.75
2023-05-18T11:40:51.133Z,2.50
2023-05-18T11:43:24.191Z,2.65
2023-05-18T11:45:59.307Z,2.47
2023-05-18T11:48:27.696Z,2.67
2023-05-18T11:50:54.975Z,2.45
2023-05-18T11:53:26.129Z,2.42
2023-05-18T11:55:54.560Z,2.63
2023-05-18T11:58:21.758Z,2.63
2023-05-18T12:00:51.638Z,2.42
2023-05-18T12:03:22.788Z,2.90
2023-05-18T12:05:49.893Z,2.60
2023-05-18T12:08:19.076Z,2.33
2023-05-18T12:10:48.863Z,2.70
2023-05-18T12:13:17.387Z,2.78
2023-05-18T12:15:44.807Z,2.33
2023-05-18T12:18:11.591Z,2.55
2023-05-18T12:20:41.264Z,2.72
2023-05-18T12:23:07.897Z,2.22
2023-05-18T12:25:34.533Z,3.15
2023-05-18T12:28:02.055Z,2.50
2023-05-18T12:30:35.958Z,2.33
2023-05-18T12:33:03.426Z,2.60
2023-05-18T12:35:30.774Z,2.35
2023-05-18T12:38:00.317Z,2.72
2023-05-18T12:40:38.610Z,2.40
2023-05-18T12:43:05.090Z,2.30
2023-05-18T12:45:33.068Z,2.22
2023-05-18T12:48:10.788Z,2.17
2023-05-18T12:50:46.293Z,2.40
2023-05-18T12:53:13.209Z,2.63
2023-05-18T12:55:39.649Z,2.47
2023-05-18T12:58:14.485Z,2.10
2023-05-18T13:00:43.454Z,2.67
2023-05-18T13:03:14.779Z,2.97
2023-05-18T13:05:44.793Z,2.33
2023-05-18T13:08:19.890Z,2.47
2023-05-18T13:10:48.036Z,2.05
2023-05-18T13:13:19.692Z,2.10
2023-05-18T13:15:46.764Z,2.30
2023-05-18T13:18:13.342Z,2.00
2023-05-18T13:20:45.380Z,2.97
2023-05-18T13:23:14.234Z,2.47
2023-05-18T13:25:41.375Z,2.55
2023-05-18T13:28:10.520Z,2.70
2023-05-18T13:30:37.545Z,2.05
2023-05-18T13:33:04.593Z,2.38
2023-05-18T13:35:31.413Z,2.33
2023-05-18T13:37:58.041Z,2.47
2023-05-18T13:40:25.536Z,2.60
2023-05-18T13:42:52.455Z,2.22
2023-05-18T13:45:21.391Z,2.25
2023-05-18T13:47:50.804Z,2.17
2023-05-18T13:50:19.277Z,2.63
2023-05-18T13:52:50.210Z,2.92
2023-05-18T13:55:16.695Z,2.38
2023-05-18T13:57:44.507Z,2.30
2023-05-18T14:00:13.278Z,2.85
2023-05-18T14:02:40.863Z,2.40
2023-05-18T14:05:08.703Z,2.70
2023-05-18T14:07:38.743Z,2.40
2023-05-18T14:10:06.473Z,2.55
2023-05-18T14:12:33.211Z,2.63
2023-05-18T14:14:59.868Z,2.42
2023-05-18T14:17:27.482Z,2.67
2023-05-18T14:19:53.946Z,2.97
2023-05-18T14:22:21.902Z,2.70
2023-05-18T14:24:50.225Z,2.30
2023-05-18T14:27:16.665Z,2.47
2023-05-18T14:29:43.113Z,2.70
2023-05-18T14:32:09.508Z,2.35
2023-05-18T14:34:35.932Z,2.15
2023-05-18T14:37:02.336Z,2.63
2023-05-18T14:39:28.816Z,2.72
2023-05-18T14:41:55.348Z,2.22
2023-05-18T14:44:21.792Z,2.45
2023-05-18T14:46:48.408Z,2.47
2023-05-18T14:49:14.902Z,2.95
2023-05-18T14:51:41.443Z,2.55
2023-05-18T14:54:07.874Z,2.55
2023-05-18T14:56:34.301Z,2.08
2023-05-18T14:59:00.698Z,2.45
2023-05-18T15:01:27.207Z,2.35
2023-05-18T15:03:53.702Z,2.40
2023-05-18T15:06:20.327Z,2.47
2023-05-18T15:08:46.734Z,2.03
2023-05-18T15:11:13.166Z,2.40
2023-05-18T15:13:40.592Z,2.47
2023-05-18T15:16:07.335Z,2.42
2023-05-18T15:18:33.948Z,2.80
2023-05-18T15:21:00.457Z,2.78
2023-05-18T15:23:26.932Z,2.50
2023-05-18T15:25:56.872Z,2.55
2023-05-18T15:28:23.354Z,2.53
2023-05-18T15:30:49.840Z,3.00
2023-05-18T15:33:16.307Z,2.35
2023-05-18T15:35:42.857Z,2.63
2023-05-18T15:38:09.408Z,3.17
2023-05-18T15:40:35.874Z,2.90
2023-05-18T15:43:02.391Z,2.42
2023-05-18T15:45:28.930Z,2.60
2023-05-18T15:47:55.861Z,2.53
2023-05-18T15:50:22.303Z,3.17
2023-05-18T15:52:48.713Z,2.22
2023-05-18T15:55:15.154Z,2.50
2023-05-18T15:57:41.636Z,2.22
2023-05-18T16:00:08.644Z,2.25
2023-05-18T16:02:35.151Z,2.28
2023-05-18T16:05:01.627Z,2.35
2023-05-18T16:07:28.053Z,2.97
2023-05-18T16:09:54.547Z,2.47
2023-05-18T16:12:20.995Z,2.15
2023-05-18T16:14:47.580Z,2.25
2023-05-18T16:17:14.167Z,2.13
2023-05-18T16:19:41.018Z,2.20
2023-05-18T16:22:09.136Z,2.33
2023-05-18T16:24:35.994Z,2.25
2023-05-18T16:27:02.515Z,2.45
2023-05-18T16:29:28.977Z,2.60
2023-05-18T16:31:55.697Z,2.35
2023-05-18T16:34:22.258Z,2.35
2023-05-18T16:36:48.795Z,2.63
2023-05-18T16:39:15.298Z,2.25
2023-05-18T16:41:41.791Z,1.90
2023-05-18T16:44:08.431Z,2.13
2023-05-18T16:46:34.983Z,2.60
2023-05-18T16:49:01.581Z,1.95
2023-05-18T16:51:29.297Z,2.70
2023-05-18T16:53:55.845Z,2.70
2023-05-18T16:56:24.303Z,2.78
2023-05-18T16:58:52.426Z,2.25
2023-05-18T17:03:53.274Z,3.08
2023-05-18T17:06:21.207Z,2.53
2023-05-18T17:08:47.749Z,2.90
2023-05-18T17:11:14.380Z,2.85
2023-05-18T17:13:40.934Z,2.75
2023-05-18T17:16:07.524Z,2.83
2023-05-18T17:18:33.973Z,2.58
2023-05-18T17:21:00.437Z,2.97
2023-05-18T17:23:26.891Z,2.58
2023-05-18T17:26:00.936Z,2.60
2023-05-18T17:28:32.157Z,2.35
2023-05-18T17:30:58.585Z,2.28
2023-05-18T17:33:24.983Z,2.30
2023-05-18T17:35:51.572Z,2.63
2023-05-18T17:38:18.095Z,2.60
2023-05-18T17:40:44.581Z,2.35
2023-05-18T17:43:11.128Z,2.28
2023-05-18T17:45:37.524Z,2.28
2023-05-18T17:48:04.197Z,2.60
2023-05-18T17:50:30.913Z,2.63
2023-05-18T17:52:57.576Z,2.65
2023-05-18T17:55:23.991Z,2.65
2023-05-18T17:57:51.195Z,2.47
2023-05-18T18:00:18.642Z,2.60
2023-05-18T18:02:45.155Z,2.42
2023-05-18T18:05:11.693Z,2.30
2023-05-18T18:07:39.164Z,2.28
2023-05-18T18:10:06.990Z,2.08
2023-05-18T18:12:33.458Z,2.45
2023-05-18T18:14:59.895Z,2.67
2023-05-18T18:17:26.417Z,2.30
2023-05-18T18:19:52.878Z,2.50
2023-05-18T18:22:19.302Z,2.45
2023-05-18T18:24:45.804Z,2.20
2023-05-18T18:27:12.262Z,2.20
2023-05-18T18:29:38.684Z,2.40
2023-05-18T18:32:05.360Z,2.75
2023-05-18T18:34:31.884Z,2.08
2023-05-18T18:36:58.919Z,2.17
2023-05-18T18:39:25.369Z,2.60
2023-05-18T18:41:51.782Z,2.17
2023-05-18T18:44:18.192Z,2.35
2023-05-18T18:46:45.053Z,2.30
2023-05-18T18:49:11.823Z,2.28
2023-05-18T18:51:38.272Z,2.60
2023-05-18T18:54:04.741Z,2.50
2023-05-18T18:56:31.271Z,1.60
2023-05-18T18:58:57.788Z,1.80
2023-05-18T19:01:24.234Z,2.10
2023-05-18T19:03:52.749Z,2.22
2023-05-18T19:06:20.175Z,2.55
2023-05-18T19:08:46.619Z,10.90
2023-05-18T19:11:13.033Z,14.63
2023-05-18T19:13:39.467Z,5.75
2023-05-18T19:16:06.364Z,5.93
2023-05-18T19:18:32.878Z,6.50
2023-05-18T19:21:01.226Z,4.03
2023-05-18T19:23:27.819Z,7.50
2023-05-18T19:25:54.785Z,16.42
2023-05-18T19:28:21.587Z,13.27
2023-05-18T19:30:48.132Z,7.57
2023-05-18T19:33:14.713Z,3.88
2023-05-18T19:35:41.423Z,2.47
2023-05-18T19:38:07.941Z,3.05
2023-05-18T19:40:34.360Z,2.17
2023-05-18T19:43:01.522Z,2.33
2023-05-18T19:45:28.043Z,1.95
2023-05-18T19:47:54.617Z,4.43
2023-05-18T19:50:21.238Z,3.78
2023-05-18T19:52:49.405Z,2.80
2023-05-18T19:55:17.058Z,3.97
2023-05-18T19:57:43.517Z,2.67
2023-05-18T20:00:12.335Z,2.60
2023-05-18T20:02:38.835Z,2.30
2023-05-18T20:05:06.926Z,1.98
2023-05-18T20:07:33.910Z,2.80
2023-05-18T20:10:00.314Z,3.90
2023-05-18T20:12:28.326Z,3.88
2023-05-18T20:14:54.796Z,7.07
2023-05-18T20:17:21.520Z,5.63
2023-05-18T20:19:50.900Z,4.55
2023-05-18T20:22:17.936Z,3.75
2023-05-18T20:24:44.932Z,4.40
2023-05-18T20:27:15.161Z,2.53
2023-05-18T20:29:41.664Z,3.10
2023-05-18T20:32:08.109Z,3.15
2023-05-18T20:34:34.661Z,4.05
2023-05-18T20:37:04.073Z,2.85
2023-05-18T20:39:30.577Z,2.85
2023-05-18T20:41:58.629Z,2.28
2023-05-18T20:44:29.360Z,3.40
2023-05-18T20:46:55.905Z,1.85
2023-05-18T20:49:22.414Z,2.30
2023-05-18T20:51:49.242Z,1.92
2023-05-18T20:54:17.742Z,2.33
2023-05-18T20:56:44.486Z,2.30
2023-05-18T20:59:12.552Z,1.98
2023-05-18T21:01:39.606Z,2.40
2023-05-18T21:04:06.681Z,2.00
2023-05-18T21:06:34.293Z,2.22
2023-05-18T21:09:01.243Z,2.25
2023-05-18T21:11:27.963Z,2.58
2023-05-18T21:13:54.397Z,2.83
2023-05-18T21:16:22.439Z,1.90
2023-05-18T21:18:48.931Z,1.70
2023-05-18T21:21:15.460Z,1.88
2023-05-18T21:23:41.903Z,2.20
2023-05-18T21:26:08.347Z,2.88
2023-05-18T21:28:35.125Z,2.00
2023-05-18T21:31:01.793Z,1.75
2023-05-18T21:33:28.354Z,2.17
2023-05-18T21:35:54.859Z,1.80
2023-05-18T21:38:21.445Z,8.65
2023-05-18T21:40:47.913Z,2.83
2023-05-18T21:43:14.375Z,3.40
2023-05-18T21:45:41.172Z,2.35
2023-05-18T21:48:08.384Z,2.40
2023-05-18T21:50:35.442Z,2.50
2023-05-18T21:53:05.540Z,2.65
2023-05-18T21:55:32.461Z,2.30
2023-05-18T21:57:59.253Z,2.35
2023-05-18T22:00:26.822Z,1.92
2023-05-18T22:02:54.539Z,1.73
2023-05-18T22:05:21.102Z,2.00
2023-05-18T22:07:48.416Z,1.90
2023-05-18T22:10:14.948Z,2.03
2023-05-18T22:12:43.378Z,1.85
2023-05-18T22:15:10.720Z,2.08
2023-05-18T22:17:37.495Z,2.15
2023-05-18T22:20:06.487Z,3.42
2023-05-18T22:22:32.958Z,1.98
2023-05-18T22:24:59.619Z,1.73
2023-05-18T22:27:26.136Z,2.30
2023-05-18T22:29:52.596Z,2.05
2023-05-18T22:32:19.426Z,2.45
2023-05-18T22:34:45.977Z,2.72
2023-05-18T22:37:12.752Z,2.20
2023-05-18T22:39:40.441Z,2.17
2023-05-18T22:42:06.946Z,2.00
2023-05-18T22:44:33.393Z,1.92
2023-05-18T22:47:00.165Z,2.05
2023-05-18T22:49:26.624Z,2.22
2023-05-18T22:51:54.457Z,1.60
2023-05-18T22:54:21.573Z,2.30
2023-05-18T22:56:48.050Z,1.65
2023-05-18T22:59:14.508Z,2.20
2023-05-18T23:01:41.098Z,1.70
2023-05-18T23:04:07.726Z,2.30
2023-05-18T23:06:34.506Z,2.17
2023-05-18T23:09:00.993Z,1.85
2023-05-18T23:11:28.394Z,2.15
2023-05-18T23:13:54.952Z,1.80
2023-05-18T23:16:22.670Z,1.73
2023-05-18T23:18:50.542Z,1.63
2023-05-18T23:21:17.082Z,1.88
2023-05-18T23:23:45.560Z,1.88
2023-05-18T23:26:12.554Z,1.40
2023-05-18T23:28:39.058Z,1.88
2023-05-18T23:31:05.590Z,1.58
2023-05-18T23:33:32.406Z,1.73
2023-05-18T23:36:02.488Z,1.98
2023-05-18T23:38:34.597Z,2.05
2023-05-18T23:41:04.664Z,1.83
2023-05-18T23:43:31.306Z,1.60
2023-05-18T23:45:59.580Z,1.80
2023-05-18T23:48:27.494Z,1.65
2023-05-18T23:50:57.374Z,1.52
2023-05-18T23:53:24.828Z,1.73
2023-05-18T23:55:51.519Z,1.92
2023-05-18T23:58:18.142Z,1.98
